SLRQ

Details ICAO SLRQ (RBQ)
Name Rurrenabaque
Region Bolivia
Timezone America/La_Paz (UTC-4.0)
Plans Departing 0
Arriving 1
Stats Elevation 899 ft / 274 m (AMSL)
Location -14.486945° -67.455139°
Runways 2
Magnetic Variation 9.079° W
Sunrise 2017-12-18 09:58:25 UTC / 2017-12-18 05:58:25 Local
Sunset 2017-12-18 22:57:20 UTC / 2017-12-18 18:57:20 Local
Advertisement - Login to hide

Runways

ID Width Length Bearing (true) Bearing (mag) Surface Threshold Offset Overrun Length
13 101 ft / 31 m 7,061 ft / 2,152 m 128.00° 137.08° Concrete 0 ft / 0 m 0 ft / 0 m
18 61 ft / 19 m 4,268 ft / 1,301 m 178.00° 187.08° Concrete 0 ft / 0 m 0 ft / 0 m
31 101 ft / 31 m 7,061 ft / 2,152 m 308.00° 317.08° Concrete 0 ft / 0 m 0 ft / 0 m
36 61 ft / 19 m 4,268 ft / 1,301 m 358.00° 7.08° Concrete 0 ft / 0 m 0 ft / 0 m

Map

Weather


0- 5 10 15 20 25 30 35+ Temperature / ° C

Clouds and Precipitation
Forecast for 2017-12-18 18:00 UTC. Updated 2 hours ago

Ground ~20,000 ft ~40,000 ft Winds

METAR

SLRQ 181800Z 00000KT 0800 +RA SCT005 BKN013 OVC070 22/22 Q1013

TAF

Not found
Warning: Do not use this data for real-world aviation or navigation. No guarantee of current accuracy is given.